Terminal Aerodrome Forecast
Issued by NWS Wilmington, OH

Home | Current Version | Previous Version | Text Only | Print | Product List | Glossary On
Versions: 1 2 3 4 5 6 7 8 9 10 11 12 13 14 15 16 17 18 19 20 21 22 23
000
FTUS41 KILN 012300
TAFILN
TAF
KILN 012337Z 0200/0224 21008KT P6SM BKN050
      TEMPO 0200/0201 3SM -TSRA BKN040CB
     FM020200 21007KT P6SM BKN250
     FM020900 21007KT P6SM VCSH BKN080
     FM021100 22008KT P6SM -SHRA VCTS BKN040CB OVC120
     FM021800 24011KT P6SM VCSH BKN040
     FM022200 25011KT P6SM SCT040=

USA.gov is the U.S. government's official web portal to all federal, state and local government web resources and services.